createdAt,value
2023-04-09T00:01:50.513Z,16.40
2023-04-09T00:04:20.481Z,15.45
2023-04-09T00:06:50.396Z,15.43
2023-04-09T00:09:20.986Z,15.75
2023-04-09T00:11:53.457Z,15.32
2023-04-09T00:14:23.327Z,14.55
2023-04-09T00:16:53.270Z,16.02
2023-04-09T00:19:23.493Z,15.07
2023-04-09T00:21:53.379Z,16.67
2023-04-09T00:24:23.315Z,15.93
2023-04-09T00:26:56.420Z,17.80
2023-04-09T00:29:26.303Z,17.55
2023-04-09T00:31:56.297Z,17.27
2023-04-09T00:34:26.357Z,17.70
2023-04-09T00:36:56.407Z,17.98
2023-04-09T00:39:26.372Z,17.40
2023-04-09T00:42:03.022Z,19.10
2023-04-09T00:44:33.043Z,16.85
2023-04-09T00:47:03.220Z,17.10
2023-04-09T00:49:33.465Z,18.13
2023-04-09T00:52:03.423Z,17.65
2023-04-09T00:54:36.349Z,17.65
2023-04-09T00:57:09.168Z,16.95
2023-04-09T00:59:39.140Z,16.67
2023-04-09T01:02:09.058Z,17.40
2023-04-09T01:04:39.875Z,17.45
2023-04-09T01:07:15.808Z,15.98
2023-04-09T01:09:52.114Z,14.43
2023-04-09T01:12:35.413Z,15.65
2023-04-09T01:15:09.188Z,15.07
2023-04-09T01:17:44.471Z,15.02
2023-04-09T01:20:17.300Z,13.50
2023-04-09T01:23:00.877Z,13.00
2023-04-09T01:25:40.516Z,13.32
2023-04-09T01:28:26.438Z,12.95
2023-04-09T01:31:02.113Z,12.68
2023-04-09T01:33:34.016Z,13.55
2023-04-09T01:36:07.295Z,12.95
2023-04-09T01:38:38.686Z,12.38
2023-04-09T01:41:10.727Z,12.35
2023-04-09T01:43:44.294Z,13.25
2023-04-09T01:46:14.973Z,12.60
2023-04-09T01:48:46.526Z,12.88
2023-04-09T01:51:17.780Z,12.18
2023-04-09T01:53:47.781Z,13.10
2023-04-09T01:56:17.677Z,12.65
2023-04-09T01:58:50.492Z,12.68
2023-04-09T02:01:26.866Z,11.88
2023-04-09T02:03:59.765Z,12.20
2023-04-09T02:06:35.786Z,12.23
2023-04-09T02:09:08.047Z,12.82
2023-04-09T02:11:40.670Z,12.10
2023-04-09T02:14:14.662Z,11.68
2023-04-09T02:16:44.881Z,12.45
2023-04-09T02:19:14.810Z,11.70
2023-04-09T02:21:44.681Z,12.15
2023-04-09T02:24:14.566Z,12.40
2023-04-09T02:26:44.452Z,12.10
2023-04-09T02:29:16.897Z,12.15
2023-04-09T02:31:46.707Z,13.55
2023-04-09T02:34:16.554Z,13.05
2023-04-09T02:36:46.562Z,12.38
2023-04-09T02:39:16.434Z,12.30
2023-04-09T02:41:46.742Z,11.98
2023-04-09T02:44:19.220Z,12.18
2023-04-09T02:46:51.540Z,11.95
2023-04-09T02:49:21.484Z,12.20
2023-04-09T02:51:51.322Z,13.50
2023-04-09T02:54:21.257Z,11.63
2023-04-09T02:56:51.089Z,12.07
2023-04-09T02:59:23.605Z,12.45
2023-04-09T03:01:53.566Z,12.75
2023-04-09T03:04:23.563Z,13.18
2023-04-09T03:06:53.516Z,12.88
2023-04-09T03:09:23.378Z,12.55
2023-04-09T03:11:53.253Z,13.20
2023-04-09T03:14:25.677Z,12.82
2023-04-09T03:16:55.594Z,13.80
2023-04-09T03:19:25.533Z,13.05
2023-04-09T03:21:55.386Z,12.57
2023-04-09T03:24:25.286Z,12.70
2023-04-09T03:26:55.116Z,12.25
2023-04-09T03:29:27.667Z,12.70
2023-04-09T03:31:57.532Z,13.13
2023-04-09T03:34:27.403Z,12.88
2023-04-09T03:36:57.456Z,11.77
2023-04-09T03:39:30.919Z,13.00
2023-04-09T03:42:01.966Z,12.65
2023-04-09T03:44:34.585Z,13.25
2023-04-09T03:47:04.458Z,14.20
2023-04-09T03:49:34.303Z,13.13
2023-04-09T03:52:04.451Z,14.27
2023-04-09T03:54:34.403Z,13.43
2023-04-09T03:57:04.644Z,13.27
2023-04-09T03:59:37.087Z,12.38
2023-04-09T04:02:07.090Z,13.23
2023-04-09T04:04:37.053Z,13.18
2023-04-09T04:07:07.865Z,13.40
2023-04-09T04:09:37.805Z,13.25
2023-04-09T04:12:07.942Z,12.75
2023-04-09T04:14:40.366Z,12.85
2023-04-09T04:17:10.382Z,13.65
2023-04-09T04:19:40.269Z,12.43
2023-04-09T04:22:10.085Z,12.50
2023-04-09T04:24:39.936Z,13.35
2023-04-09T04:27:09.775Z,13.95
2023-04-09T04:29:42.310Z,13.75
2023-04-09T04:32:12.233Z,13.38
2023-04-09T04:34:42.069Z,13.50
2023-04-09T04:37:12.016Z,13.13
2023-04-09T04:39:41.851Z,12.65
2023-04-09T04:42:11.733Z,13.77
2023-04-09T04:44:44.218Z,13.77
2023-04-09T04:47:14.110Z,13.38
2023-04-09T04:49:43.990Z,12.73
2023-04-09T04:52:14.414Z,13.63
2023-04-09T04:54:45.460Z,13.20
2023-04-09T04:57:15.563Z,13.02
2023-04-09T04:59:48.008Z,13.10
2023-04-09T05:02:18.038Z,13.48
2023-04-09T05:04:47.968Z,14.40
2023-04-09T05:07:17.815Z,14.32
2023-04-09T05:09:47.710Z,13.30
2023-04-09T05:12:18.173Z,12.90
2023-04-09T05:14:50.683Z,13.52
2023-04-09T05:17:20.656Z,13.15
2023-04-09T05:19:54.413Z,13.25
2023-04-09T05:22:24.281Z,13.38
2023-04-09T05:24:54.240Z,13.48
2023-04-09T05:27:26.107Z,13.27
2023-04-09T05:30:00.665Z,12.70
2023-04-09T05:32:30.757Z,12.57
2023-04-09T05:35:00.839Z,14.15
2023-04-09T05:37:30.912Z,12.85
2023-04-09T05:40:00.804Z,12.73
2023-04-09T05:42:30.930Z,12.25
2023-04-09T05:45:03.465Z,13.05
2023-04-09T05:47:33.776Z,12.75
2023-04-09T05:50:04.465Z,13.85
2023-04-09T05:52:34.397Z,13.48
2023-04-09T05:55:04.305Z,13.57
2023-04-09T05:57:34.176Z,12.65
2023-04-09T06:00:08.261Z,12.38
2023-04-09T06:02:38.246Z,12.32
2023-04-09T06:05:08.903Z,12.88
2023-04-09T06:07:38.838Z,11.68
2023-04-09T06:10:10.483Z,12.10
2023-04-09T06:12:40.372Z,12.65
2023-04-09T06:15:14.093Z,12.32
2023-04-09T06:17:43.946Z,12.38
2023-04-09T06:20:14.244Z,11.93
2023-04-09T06:22:44.169Z,11.65
2023-04-09T06:25:14.004Z,11.30
2023-04-09T06:27:43.882Z,12.65
2023-04-09T06:30:16.607Z,12.00
2023-04-09T06:32:54.346Z,13.07
2023-04-09T06:35:25.110Z,11.95
2023-04-09T06:37:55.125Z,11.52
2023-04-09T06:40:24.996Z,12.25
2023-04-09T06:42:54.962Z,11.30
2023-04-09T06:45:27.655Z,11.00
2023-04-09T06:47:57.537Z,11.35
2023-04-09T06:50:27.459Z,11.02
2023-04-09T06:52:58.098Z,11.95
2023-04-09T06:55:27.984Z,10.90
2023-04-09T06:57:57.861Z,11.50
2023-04-09T07:00:30.522Z,11.00
2023-04-09T07:03:00.935Z,11.73
2023-04-09T07:05:34.086Z,12.40
2023-04-09T07:08:04.358Z,11.93
2023-04-09T07:10:34.335Z,11.23
2023-04-09T07:13:04.680Z,11.68
2023-04-09T07:15:37.284Z,10.50
2023-04-09T07:18:07.302Z,11.10
2023-04-09T07:20:37.195Z,11.93
2023-04-09T07:23:07.110Z,10.18
2023-04-09T07:25:37.035Z,10.45
2023-04-09T07:28:07.087Z,10.35
2023-04-09T07:30:39.569Z,9.88
2023-04-09T07:33:09.525Z,10.63
2023-04-09T07:35:39.451Z,10.40
2023-04-09T07:38:09.546Z,10.25
2023-04-09T07:40:39.436Z,10.65
2023-04-09T07:43:09.394Z,9.80
2023-04-09T07:45:41.851Z,9.55
2023-04-09T07:48:11.717Z,10.13
2023-04-09T07:50:41.602Z,10.00
2023-04-09T07:53:11.925Z,10.15
2023-04-09T07:55:43.053Z,9.30
2023-04-09T07:58:13.018Z,9.68
2023-04-09T08:00:45.475Z,8.75
2023-04-09T08:03:15.897Z,8.82
2023-04-09T08:05:46.134Z,9.45
2023-04-09T08:08:16.032Z,8.65
2023-04-09T08:10:46.178Z,9.35
2023-04-09T08:13:16.162Z,8.73
2023-04-09T08:15:48.548Z,9.10
2023-04-09T08:18:18.406Z,7.97
2023-04-09T08:20:48.256Z,7.15
2023-04-09T08:23:18.141Z,7.45
2023-04-09T08:25:48.067Z,6.40
2023-04-09T08:28:17.970Z,6.65
2023-04-09T08:30:50.424Z,6.53
2023-04-09T08:33:20.334Z,6.95
2023-04-09T08:35:50.229Z,6.97
2023-04-09T08:38:21.284Z,6.75
2023-04-09T08:40:51.165Z,6.78
2023-04-09T08:43:33.713Z,6.72
2023-04-09T08:46:18.472Z,6.60
2023-04-09T08:48:49.542Z,6.07
2023-04-09T08:51:21.137Z,5.38
2023-04-09T08:53:53.731Z,5.40
2023-04-09T08:56:23.983Z,6.43
2023-04-09T08:58:54.148Z,6.15
2023-04-09T09:01:28.932Z,6.28
2023-04-09T09:04:01.200Z,5.47
2023-04-09T09:06:33.343Z,6.93
2023-04-09T09:09:06.734Z,6.28
2023-04-09T09:11:37.546Z,3.92
2023-04-09T09:14:09.449Z,3.92
2023-04-09T09:16:43.842Z,4.95
2023-04-09T09:22:01.872Z,5.38
2023-04-09T09:24:32.786Z,5.32
2023-04-09T09:27:03.178Z,6.45
2023-04-09T09:29:33.101Z,6.47
2023-04-09T09:32:05.608Z,6.43
2023-04-09T09:34:35.533Z,5.97
2023-04-09T09:37:06.812Z,5.70
2023-04-09T09:39:47.087Z,4.82
2023-04-09T09:42:16.960Z,6.47
2023-04-09T09:44:46.937Z,6.25
2023-04-09T09:47:21.050Z,6.25
2023-04-09T09:49:52.430Z,6.57
2023-04-09T09:52:27.568Z,5.25
2023-04-09T09:54:59.930Z,5.15
2023-04-09T09:57:34.126Z,5.13
2023-04-09T10:00:06.390Z,4.70
2023-04-09T10:02:46.746Z,5.82
2023-04-09T10:05:17.943Z,5.97
2023-04-09T10:07:49.434Z,5.50
2023-04-09T10:10:19.597Z,5.60
2023-04-09T10:12:49.628Z,5.90
2023-04-09T10:15:20.030Z,5.03
2023-04-09T10:17:52.637Z,5.85
2023-04-09T10:20:29.029Z,5.78
2023-04-09T10:23:00.147Z,4.80
2023-04-09T10:25:30.349Z,5.97
2023-04-09T10:28:03.762Z,5.30
2023-04-09T10:30:37.555Z,5.68
2023-04-09T10:33:16.740Z,5.80
2023-04-09T10:35:49.920Z,9.70
2023-04-09T10:38:19.803Z,3.80
2023-04-09T10:40:51.024Z,4.65
2023-04-09T10:43:23.628Z,3.85
2023-04-09T10:45:54.552Z,3.50
2023-04-09T10:48:27.714Z,3.13
2023-04-09T10:50:58.719Z,4.30
2023-04-09T10:53:29.510Z,4.25
2023-04-09T10:55:59.454Z,3.47
2023-04-09T10:58:29.381Z,3.30
2023-04-09T11:01:04.063Z,4.88
2023-04-09T11:03:47.396Z,4.00
2023-04-09T11:06:18.336Z,3.80
2023-04-09T11:08:48.428Z,4.45
2023-04-09T11:11:18.458Z,3.88
2023-04-09T11:13:48.318Z,4.00
2023-04-09T11:16:24.291Z,3.92
2023-04-09T11:18:57.553Z,3.22
2023-04-09T11:21:31.510Z,3.40
2023-04-09T11:24:01.353Z,3.97
2023-04-09T11:26:39.059Z,4.38
2023-04-09T11:29:09.901Z,4.60
2023-04-09T11:31:40.103Z,4.25
2023-04-09T11:34:13.934Z,3.85
2023-04-09T11:36:43.961Z,4.30
2023-04-09T11:39:13.831Z,4.15
2023-04-09T11:41:44.123Z,4.10
2023-04-09T11:44:13.998Z,4.13
2023-04-09T11:46:45.811Z,3.80
2023-04-09T11:49:18.981Z,3.58
2023-04-09T11:51:49.083Z,3.30
2023-04-09T11:54:18.926Z,3.97
2023-04-09T11:56:49.506Z,4.40
2023-04-09T11:59:19.370Z,3.47
2023-04-09T12:01:53.297Z,3.67
2023-04-09T12:04:26.028Z,4.38
2023-04-09T12:07:00.698Z,3.92
2023-04-09T12:09:30.715Z,4.13
2023-04-09T12:12:02.545Z,4.30
2023-04-09T12:14:32.652Z,4.38
2023-04-09T12:17:02.615Z,4.85
2023-04-09T12:19:35.047Z,4.20
2023-04-09T12:22:04.932Z,4.47
2023-04-09T12:24:34.827Z,4.57
2023-04-09T12:27:04.735Z,4.50
2023-04-09T12:29:35.066Z,4.25
2023-04-09T12:32:05.063Z,4.40
2023-04-09T12:34:37.545Z,4.40
2023-04-09T12:37:07.461Z,3.75
2023-04-09T12:39:37.348Z,3.78
2023-04-09T12:42:07.402Z,3.95
2023-04-09T12:44:37.392Z,3.60
2023-04-09T12:47:08.070Z,4.05
2023-04-09T12:49:42.293Z,3.92
2023-04-09T12:52:12.257Z,3.47
2023-04-09T12:54:42.144Z,3.38
2023-04-09T12:57:12.029Z,3.85
2023-04-09T12:59:41.919Z,3.72
2023-04-09T13:02:11.940Z,3.72
2023-04-09T13:04:44.711Z,3.42
2023-04-09T13:07:15.763Z,3.90
2023-04-09T13:09:45.774Z,3.80
2023-04-09T13:12:16.123Z,3.63
2023-04-09T13:14:47.432Z,3.85
2023-04-09T13:17:17.456Z,3.70
2023-04-09T13:19:50.049Z,3.80
2023-04-09T13:22:20.996Z,3.78
2023-04-09T13:24:50.994Z,4.05
2023-04-09T13:27:20.887Z,3.88
2023-04-09T13:29:50.939Z,3.35
2023-04-09T13:32:22.226Z,3.80
2023-04-09T13:34:55.844Z,4.10
2023-04-09T13:37:26.093Z,4.00
2023-04-09T13:39:56.001Z,3.95
2023-04-09T13:42:26.212Z,4.07
2023-04-09T13:44:57.604Z,4.28
2023-04-09T13:47:27.542Z,3.63
2023-04-09T13:50:00.087Z,3.60
2023-04-09T13:52:30.273Z,4.05
2023-04-09T13:55:00.173Z,3.63
2023-04-09T13:57:30.126Z,4.00
2023-04-09T14:00:02.038Z,3.80
2023-04-09T14:02:32.309Z,3.65
2023-04-09T14:05:05.337Z,3.95
2023-04-09T14:07:35.499Z,3.42
2023-04-09T14:10:05.391Z,3.50
2023-04-09T14:12:35.537Z,3.22
2023-04-09T14:15:05.533Z,3.47
2023-04-09T14:17:35.544Z,3.90
2023-04-09T14:20:09.012Z,3.72
2023-04-09T14:22:39.044Z,3.90
2023-04-09T14:25:09.980Z,3.55
2023-04-09T14:27:39.877Z,3.35
2023-04-09T14:30:11.780Z,3.67
2023-04-09T14:32:41.740Z,3.65
2023-04-09T14:35:14.429Z,3.58
2023-04-09T14:37:44.327Z,3.88
2023-04-09T14:40:14.901Z,3.85
2023-04-09T14:42:44.911Z,3.75
2023-04-09T14:45:14.853Z,3.70
2023-04-09T14:47:44.820Z,3.30
2023-04-09T14:50:17.366Z,3.50
2023-04-09T14:52:48.657Z,3.70
2023-04-09T14:55:19.072Z,3.53
2023-04-09T14:57:48.961Z,3.53
2023-04-09T15:00:19.065Z,3.95
2023-04-09T15:02:49.063Z,4.57
2023-04-09T15:05:21.987Z,4.28
2023-04-09T15:07:52.049Z,4.97
2023-04-09T15:10:22.198Z,4.90
2023-04-09T15:12:52.104Z,4.68
2023-04-09T15:15:21.973Z,4.20
2023-04-09T15:17:51.848Z,4.43
2023-04-09T15:20:24.461Z,4.43
2023-04-09T15:22:54.428Z,4.75
2023-04-09T15:25:24.716Z,4.47
2023-04-09T15:27:55.062Z,4.32
2023-04-09T15:30:25.161Z,5.20
2023-04-09T15:32:55.614Z,4.80
2023-04-09T15:35:29.549Z,4.47
2023-04-09T15:37:59.549Z,4.60
2023-04-09T15:40:29.476Z,4.47
2023-04-09T15:42:59.476Z,4.22
2023-04-09T15:45:29.612Z,4.22
2023-04-09T15:47:59.613Z,4.00
2023-04-09T15:50:32.067Z,3.55
2023-04-09T15:53:01.943Z,3.92
2023-04-09T15:55:31.820Z,4.13
2023-04-09T15:58:01.711Z,4.18
2023-04-09T16:00:33.411Z,4.07
2023-04-09T16:03:03.571Z,4.20
2023-04-09T16:05:36.047Z,4.10
2023-04-09T16:08:06.381Z,4.53
2023-04-09T16:10:36.591Z,4.43
2023-04-09T16:13:06.548Z,4.55
2023-04-09T16:15:36.680Z,4.70
2023-04-09T16:18:06.791Z,5.05
2023-04-09T16:20:39.305Z,4.55
2023-04-09T16:23:09.166Z,4.35
2023-04-09T16:25:39.376Z,4.68
2023-04-09T16:28:09.288Z,4.43
2023-04-09T16:30:39.178Z,4.70
2023-04-09T16:33:09.152Z,4.55
2023-04-09T16:35:42.301Z,5.18
2023-04-09T16:38:12.395Z,4.93
2023-04-09T16:40:43.055Z,5.00
2023-04-09T16:43:13.138Z,4.93
2023-04-09T16:45:43.108Z,5.13
2023-04-09T16:48:13.692Z,5.18
2023-04-09T16:50:46.113Z,5.07
2023-04-09T16:53:16.142Z,4.93
2023-04-09T16:55:46.084Z,4.97
2023-04-09T16:58:16.085Z,5.38
2023-04-09T17:00:47.396Z,4.97
2023-04-09T17:03:18.318Z,4.95
2023-04-09T17:05:52.188Z,4.55
2023-04-09T17:08:24.478Z,4.60
2023-04-09T17:11:02.008Z,4.28
2023-04-09T17:13:32.249Z,4.88
2023-04-09T17:16:02.746Z,5.05
2023-04-09T17:18:32.991Z,5.15
2023-04-09T17:21:05.482Z,5.68
2023-04-09T17:23:35.362Z,5.45
2023-04-09T17:26:05.361Z,4.45
2023-04-09T17:28:35.339Z,4.95
2023-04-09T17:31:05.265Z,4.38
2023-04-09T17:33:35.112Z,4.25
2023-04-09T17:36:07.661Z,4.32
2023-04-09T17:38:37.884Z,4.38
2023-04-09T17:41:08.699Z,4.43
2023-04-09T17:43:39.456Z,4.50
2023-04-09T17:46:09.806Z,4.72
2023-04-09T17:48:39.906Z,5.03
2023-04-09T17:51:18.583Z,5.25
2023-04-09T17:53:48.684Z,4.88
2023-04-09T17:56:19.249Z,5.13
2023-04-09T17:58:49.272Z,5.68
2023-04-09T18:01:19.238Z,4.82
2023-04-09T18:03:50.503Z,5.18
2023-04-09T18:06:23.154Z,4.97
2023-04-09T18:08:55.893Z,4.68
2023-04-09T18:11:25.978Z,5.60
2023-04-09T18:13:55.869Z,4.60
2023-04-09T18:16:25.851Z,5.13
2023-04-09T18:18:58.583Z,4.68
2023-04-09T18:21:31.293Z,4.90
2023-04-09T18:24:01.240Z,5.43
2023-04-09T18:26:31.506Z,5.22
2023-04-09T18:29:01.845Z,6.38
2023-04-09T18:31:31.960Z,5.55
2023-04-09T18:34:01.945Z,5.40
2023-04-09T18:36:34.449Z,5.38
2023-04-09T18:39:05.706Z,5.38
2023-04-09T18:41:35.614Z,5.45
2023-04-09T18:44:05.826Z,5.45
2023-04-09T18:46:35.788Z,5.22
2023-04-09T18:49:05.705Z,6.25
2023-04-09T18:51:38.167Z,6.15
2023-04-09T18:54:08.038Z,5.65
2023-04-09T18:56:37.883Z,5.85
2023-04-09T18:59:07.957Z,5.97
2023-04-09T19:01:37.874Z,5.80
2023-04-09T19:04:07.948Z,6.25
2023-04-09T19:06:40.920Z,5.85
2023-04-09T19:09:10.808Z,5.88
2023-04-09T19:11:40.709Z,6.28
2023-04-09T19:14:10.625Z,6.70
2023-04-09T19:16:41.033Z,6.50
2023-04-09T19:19:10.992Z,6.03
2023-04-09T19:21:43.866Z,6.10
2023-04-09T19:24:13.867Z,7.05
2023-04-09T19:26:43.774Z,6.47
2023-04-09T19:29:13.698Z,6.35
2023-04-09T19:31:44.178Z,6.82
2023-04-09T19:34:14.210Z,6.40
2023-04-09T19:36:46.711Z,6.20
2023-04-09T19:39:16.681Z,6.57
2023-04-09T19:41:46.546Z,6.15
2023-04-09T19:44:16.515Z,6.30
2023-04-09T19:46:46.472Z,6.00
2023-04-09T19:49:17.442Z,6.88
2023-04-09T19:51:49.921Z,6.70
2023-04-09T19:54:19.837Z,6.65
2023-04-09T19:56:49.693Z,6.28
2023-04-09T19:59:19.909Z,6.88
2023-04-09T20:01:50.780Z,7.20
2023-04-09T20:04:20.835Z,6.65
2023-04-09T20:06:55.110Z,6.90
2023-04-09T20:09:27.756Z,7.35
2023-04-09T20:11:58.532Z,7.00
2023-04-09T20:14:28.397Z,6.63
2023-04-09T20:16:58.372Z,7.00
2023-04-09T20:19:28.357Z,7.10
2023-04-09T20:22:01.429Z,7.68
2023-04-09T20:24:32.428Z,7.30
2023-04-09T20:27:05.940Z,7.72
2023-04-09T20:29:35.812Z,8.15
2023-04-09T20:32:06.512Z,8.20
2023-04-09T20:34:36.515Z,8.30
2023-04-09T20:37:08.921Z,7.57
2023-04-09T20:39:38.845Z,8.25
2023-04-09T20:42:08.778Z,7.82
2023-04-09T20:44:38.762Z,8.13
2023-04-09T20:47:09.042Z,8.07
2023-04-09T20:49:38.929Z,7.38
2023-04-09T20:52:11.415Z,7.15
2023-04-09T20:54:43.072Z,7.35
2023-04-09T20:57:13.965Z,7.38
2023-04-09T20:59:44.921Z,7.95
2023-04-09T21:02:15.545Z,7.15
2023-04-09T21:04:46.347Z,8.23
2023-04-09T21:07:18.841Z,7.70
2023-04-09T21:09:48.841Z,7.50
2023-04-09T21:12:18.677Z,8.05
2023-04-09T21:14:48.546Z,8.15
2023-04-09T21:17:18.441Z,8.40
2023-04-09T21:19:49.497Z,8.18
2023-04-09T21:22:22.118Z,7.47
2023-04-09T21:24:56.275Z,9.23
2023-04-09T21:27:26.125Z,7.78
2023-04-09T21:29:56.113Z,8.05
2023-04-09T21:32:26.045Z,8.52
2023-04-09T21:34:56.112Z,8.43
2023-04-09T21:37:29.166Z,8.77
2023-04-09T21:39:59.213Z,9.18
2023-04-09T21:42:31.543Z,8.48
2023-04-09T21:45:02.264Z,8.57
2023-04-09T21:47:32.250Z,8.02
2023-04-09T21:50:02.366Z,9.00
2023-04-09T21:52:37.496Z,8.15
2023-04-09T21:55:07.976Z,8.10
2023-04-09T21:57:37.884Z,7.88
2023-04-09T22:00:09.537Z,8.60
2023-04-09T22:02:40.494Z,8.65
2023-04-09T22:05:11.425Z,8.52
2023-04-09T22:07:45.339Z,8.65
2023-04-09T22:10:15.329Z,8.80
2023-04-09T22:12:45.242Z,9.38
2023-04-09T22:15:15.529Z,8.55
2023-04-09T22:17:45.419Z,8.38
2023-04-09T22:20:15.600Z,8.55
2023-04-09T22:22:48.471Z,9.13
2023-04-09T22:25:18.849Z,9.23
2023-04-09T22:27:53.318Z,8.98
2023-04-09T22:30:24.592Z,9.02
2023-04-09T22:32:54.660Z,8.60
2023-04-09T22:35:24.556Z,8.32
2023-04-09T22:37:57.016Z,9.55
2023-04-09T22:40:26.925Z,9.52
2023-04-09T22:42:56.737Z,8.93
2023-04-09T22:45:27.962Z,9.05
2023-04-09T22:47:57.889Z,9.30
2023-04-09T22:50:29.582Z,9.20
2023-04-09T22:53:02.537Z,9.23
2023-04-09T22:55:32.416Z,9.82
2023-04-09T22:58:02.234Z,9.15
2023-04-09T23:00:32.035Z,9.65
2023-04-09T23:03:02.018Z,9.15
2023-04-09T23:05:32.208Z,9.35
2023-04-09T23:08:04.626Z,8.52
2023-04-09T23:10:34.976Z,9.48
2023-04-09T23:13:05.349Z,9.55
2023-04-09T23:15:35.267Z,10.10
2023-04-09T23:18:05.225Z,9.65
2023-04-09T23:20:35.149Z,8.73
2023-04-09T23:23:07.670Z,10.30
2023-04-09T23:25:37.869Z,8.82
2023-04-09T23:28:07.679Z,9.82
2023-04-09T23:30:37.566Z,9.40
2023-04-09T23:33:07.421Z,8.73
2023-04-09T23:35:37.397Z,9.98
2023-04-09T23:38:09.850Z,10.05
2023-04-09T23:40:39.697Z,9.80
2023-04-09T23:43:09.575Z,9.90
2023-04-09T23:45:39.566Z,10.02
2023-04-09T23:48:10.816Z,9.85
2023-04-09T23:50:41.723Z,8.85
2023-04-09T23:53:14.150Z,9.48
2023-04-09T23:55:45.462Z,9.02
2023-04-09T23:58:15.388Z,9.60
